sensor_id;sensor_type;location;lat;lon;timestamp;temperature;humidity
28614;DHT22;15806;53.548;9.964;2022-09-09T00:06:03;20.70;99.90
28614;DHT22;15806;53.548;9.964;2022-09-09T00:07:49;20.70;99.90
28614;DHT22;15806;53.548;9.964;2022-09-09T00:10:20;20.80;99.90
28614;DHT22;15806;53.548;9.964;2022-09-09T00:11:52;20.90;99.90
28614;DHT22;15806;53.548;9.964;2022-09-09T00:13:47;21.00;99.90
28614;DHT22;15806;53.548;9.964;2022-09-09T00:15:38;21.00;99.90
28614;DHT22;15806;53.548;9.964;2022-09-09T00:17:39;21.10;99.90
28614;DHT22;15806;53.548;9.964;2022-09-09T00:19:54;21.10;99.90
28614;DHT22;15806;53.548;9.964;2022-09-09T00:23:39;21.00;99.90
28614;DHT22;15806;53.548;9.964;2022-09-09T00:25:31;21.00;99.90
28614;DHT22;15806;53.548;9.964;2022-09-09T00:29:43;21.00;99.90
28614;DHT22;15806;53.548;9.964;2022-09-09T00:31:30;21.00;99.90
28614;DHT22;15806;53.548;9.964;2022-09-09T00:33:12;21.00;99.90
28614;DHT22;15806;53.548;9.964;2022-09-09T00:35:21;21.00;99.90
28614;DHT22;15806;53.548;9.964;2022-09-09T00:36:57;21.00;99.90
28614;DHT22;15806;53.548;9.964;2022-09-09T00:38:47;21.10;99.90
28614;DHT22;15806;53.548;9.964;2022-09-09T00:40:37;21.00;99.90
28614;DHT22;15806;53.548;9.964;2022-09-09T00:42:24;21.10;99.90
28614;DHT22;15806;53.548;9.964;2022-09-09T00:46:45;21.10;99.90
28614;DHT22;15806;53.548;9.964;2022-09-09T00:50:57;21.00;99.90
28614;DHT22;15806;53.548;9.964;2022-09-09T00:59:24;21.10;99.90
28614;DHT22;15806;53.548;9.964;2022-09-09T01:01:12;21.20;99.90
28614;DHT22;15806;53.548;9.964;2022-09-09T01:03:13;21.20;99.90
28614;DHT22;15806;53.548;9.964;2022-09-09T01:05:10;21.20;99.90
28614;DHT22;15806;53.548;9.964;2022-09-09T01:06:57;21.20;99.90
28614;DHT22;15806;53.548;9.964;2022-09-09T01:08:48;21.20;99.90
28614;DHT22;15806;53.548;9.964;2022-09-09T01:10:52;21.20;99.90
28614;DHT22;15806;53.548;9.964;2022-09-09T01:12:43;21.30;99.90
28614;DHT22;15806;53.548;9.964;2022-09-09T01:16:16;21.30;99.90
28614;DHT22;15806;53.548;9.964;2022-09-09T01:18:02;21.30;99.90
28614;DHT22;15806;53.548;9.964;2022-09-09T01:21:49;21.20;99.90
28614;DHT22;15806;53.548;9.964;2022-09-09T01:25:29;21.20;99.90
28614;DHT22;15806;53.548;9.964;2022-09-09T01:27:29;21.30;99.90
28614;DHT22;15806;53.548;9.964;2022-09-09T01:29:12;21.30;99.90
28614;DHT22;15806;53.548;9.964;2022-09-09T01:30:54;21.30;99.90
28614;DHT22;15806;53.548;9.964;2022-09-09T01:32:43;21.30;99.90
28614;DHT22;15806;53.548;9.964;2022-09-09T01:34:28;21.30;99.90
28614;DHT22;15806;53.548;9.964;2022-09-09T01:36:18;21.30;99.90
28614;DHT22;15806;53.548;9.964;2022-09-09T01:38:00;21.30;99.90
28614;DHT22;15806;53.548;9.964;2022-09-09T01:39:43;21.30;99.90
28614;DHT22;15806;53.548;9.964;2022-09-09T01:41:24;21.30;99.90
28614;DHT22;15806;53.548;9.964;2022-09-09T01:43:05;21.20;99.90
28614;DHT22;15806;53.548;9.964;2022-09-09T01:44:46;21.20;99.90
28614;DHT22;15806;53.548;9.964;2022-09-09T01:46:28;21.20;99.90
28614;DHT22;15806;53.548;9.964;2022-09-09T01:48:09;21.20;99.90
28614;DHT22;15806;53.548;9.964;2022-09-09T01:49:50;21.20;99.90
28614;DHT22;15806;53.548;9.964;2022-09-09T01:51:30;21.20;99.90
28614;DHT22;15806;53.548;9.964;2022-09-09T01:53:11;21.10;99.90
28614;DHT22;15806;53.548;9.964;2022-09-09T01:54:52;21.20;99.90
28614;DHT22;15806;53.548;9.964;2022-09-09T02:00:29;21.20;99.90
28614;DHT22;15806;53.548;9.964;2022-09-09T02:04:26;21.20;99.90
28614;DHT22;15806;53.548;9.964;2022-09-09T02:06:37;21.10;99.90
28614;DHT22;15806;53.548;9.964;2022-09-09T02:08:28;21.10;99.90
28614;DHT22;15806;53.548;9.964;2022-09-09T02:10:39;21.30;99.90
28614;DHT22;15806;53.548;9.964;2022-09-09T02:12:21;21.30;99.90
28614;DHT22;15806;53.548;9.964;2022-09-09T02:14:17;21.30;99.90
28614;DHT22;15806;53.548;9.964;2022-09-09T02:16:08;21.40;99.90
28614;DHT22;15806;53.548;9.964;2022-09-09T02:17:52;21.40;99.90
28614;DHT22;15806;53.548;9.964;2022-09-09T02:19:37;21.40;99.90
28614;DHT22;15806;53.548;9.964;2022-09-09T02:21:20;21.40;99.90
28614;DHT22;15806;53.548;9.964;2022-09-09T02:23:04;21.40;99.90
28614;DHT22;15806;53.548;9.964;2022-09-09T02:24:45;21.40;99.90
28614;DHT22;15806;53.548;9.964;2022-09-09T02:26:27;21.40;99.90
28614;DHT22;15806;53.548;9.964;2022-09-09T02:28:09;21.40;99.90
28614;DHT22;15806;53.548;9.964;2022-09-09T02:29:51;21.30;99.90
28614;DHT22;15806;53.548;9.964;2022-09-09T02:31:33;21.40;99.90
28614;DHT22;15806;53.548;9.964;2022-09-09T02:33:20;21.40;99.90
28614;DHT22;15806;53.548;9.964;2022-09-09T02:35:11;21.30;99.90
28614;DHT22;15806;53.548;9.964;2022-09-09T02:36:53;21.40;99.90
28614;DHT22;15806;53.548;9.964;2022-09-09T02:38:40;21.40;99.90
28614;DHT22;15806;53.548;9.964;2022-09-09T02:40:22;21.30;99.90
28614;DHT22;15806;53.548;9.964;2022-09-09T02:42:06;21.30;99.90
28614;DHT22;15806;53.548;9.964;2022-09-09T02:43:46;21.30;99.90
28614;DHT22;15806;53.548;9.964;2022-09-09T02:47:55;21.20;99.90
28614;DHT22;15806;53.548;9.964;2022-09-09T02:52:04;21.20;99.90
28614;DHT22;15806;53.548;9.964;2022-09-09T02:53:50;21.30;99.90
28614;DHT22;15806;53.548;9.964;2022-09-09T02:55:47;21.40;99.90
28614;DHT22;15806;53.548;9.964;2022-09-09T02:57:30;21.30;99.90
28614;DHT22;15806;53.548;9.964;2022-09-09T02:59:12;21.20;99.90
28614;DHT22;15806;53.548;9.964;2022-09-09T03:00:52;21.30;99.90
28614;DHT22;15806;53.548;9.964;2022-09-09T03:02:33;21.20;99.90
28614;DHT22;15806;53.548;9.964;2022-09-09T03:04:14;21.20;99.90
28614;DHT22;15806;53.548;9.964;2022-09-09T03:05:54;21.10;99.90
28614;DHT22;15806;53.548;9.964;2022-09-09T03:07:35;21.10;99.90
28614;DHT22;15806;53.548;9.964;2022-09-09T03:09:15;21.20;99.90
28614;DHT22;15806;53.548;9.964;2022-09-09T03:10:58;21.10;99.90
28614;DHT22;15806;53.548;9.964;2022-09-09T03:12:39;21.10;99.90
28614;DHT22;15806;53.548;9.964;2022-09-09T03:14:19;21.10;99.90
28614;DHT22;15806;53.548;9.964;2022-09-09T03:16:00;21.10;99.90
28614;DHT22;15806;53.548;9.964;2022-09-09T03:17:40;21.10;99.90
28614;DHT22;15806;53.548;9.964;2022-09-09T03:19:21;21.10;99.90
28614;DHT22;15806;53.548;9.964;2022-09-09T03:21:01;21.10;99.90
28614;DHT22;15806;53.548;9.964;2022-09-09T03:22:42;21.10;99.90
28614;DHT22;15806;53.548;9.964;2022-09-09T03:24:22;21.10;99.90
28614;DHT22;15806;53.548;9.964;2022-09-09T03:26:06;21.10;99.90
28614;DHT22;15806;53.548;9.964;2022-09-09T03:27:47;21.10;99.90
28614;DHT22;15806;53.548;9.964;2022-09-09T03:29:27;21.00;99.90
28614;DHT22;15806;53.548;9.964;2022-09-09T03:31:08;21.10;99.90
28614;DHT22;15806;53.548;9.964;2022-09-09T03:32:48;21.00;99.90
28614;DHT22;15806;53.548;9.964;2022-09-09T03:34:29;21.00;99.90
28614;DHT22;15806;53.548;9.964;2022-09-09T03:36:09;21.00;99.90
28614;DHT22;15806;53.548;9.964;2022-09-09T03:37:50;21.10;99.90
28614;DHT22;15806;53.548;9.964;2022-09-09T03:39:31;21.00;99.90
28614;DHT22;15806;53.548;9.964;2022-09-09T03:41:11;21.00;99.90
28614;DHT22;15806;53.548;9.964;2022-09-09T03:42:52;21.20;99.90
28614;DHT22;15806;53.548;9.964;2022-09-09T03:44:32;21.30;99.90
28614;DHT22;15806;53.548;9.964;2022-09-09T03:46:13;21.30;99.90
28614;DHT22;15806;53.548;9.964;2022-09-09T03:47:53;21.30;99.90
28614;DHT22;15806;53.548;9.964;2022-09-09T03:49:34;21.20;99.90
28614;DHT22;15806;53.548;9.964;2022-09-09T03:51:15;21.10;99.90
28614;DHT22;15806;53.548;9.964;2022-09-09T03:52:56;21.10;99.90
28614;DHT22;15806;53.548;9.964;2022-09-09T03:54:36;21.10;99.90
28614;DHT22;15806;53.548;9.964;2022-09-09T03:56:17;21.00;99.90
28614;DHT22;15806;53.548;9.964;2022-09-09T03:57:58;21.00;99.90
28614;DHT22;15806;53.548;9.964;2022-09-09T03:59:38;20.90;99.90
28614;DHT22;15806;53.548;9.964;2022-09-09T04:01:19;20.80;99.90
28614;DHT22;15806;53.548;9.964;2022-09-09T04:02:59;20.80;99.90
28614;DHT22;15806;53.548;9.964;2022-09-09T04:04:40;20.80;99.90
28614;DHT22;15806;53.548;9.964;2022-09-09T04:06:20;21.00;99.90
28614;DHT22;15806;53.548;9.964;2022-09-09T04:08:01;21.00;99.90
28614;DHT22;15806;53.548;9.964;2022-09-09T04:09:41;20.90;99.90
28614;DHT22;15806;53.548;9.964;2022-09-09T04:11:22;20.90;99.90
28614;DHT22;15806;53.548;9.964;2022-09-09T04:13:04;20.90;99.90
28614;DHT22;15806;53.548;9.964;2022-09-09T04:14:45;20.80;99.90
28614;DHT22;15806;53.548;9.964;2022-09-09T04:16:25;20.80;99.90
28614;DHT22;15806;53.548;9.964;2022-09-09T04:18:06;20.90;99.90
28614;DHT22;15806;53.548;9.964;2022-09-09T04:19:46;20.90;99.90
28614;DHT22;15806;53.548;9.964;2022-09-09T04:21:27;20.90;99.90
28614;DHT22;15806;53.548;9.964;2022-09-09T04:23:07;20.90;99.90
28614;DHT22;15806;53.548;9.964;2022-09-09T04:24:48;20.80;99.90
28614;DHT22;15806;53.548;9.964;2022-09-09T04:26:28;20.80;99.90
28614;DHT22;15806;53.548;9.964;2022-09-09T04:28:09;20.90;99.90
28614;DHT22;15806;53.548;9.964;2022-09-09T04:29:49;20.80;99.90
28614;DHT22;15806;53.548;9.964;2022-09-09T04:31:30;20.80;99.90
28614;DHT22;15806;53.548;9.964;2022-09-09T04:33:11;20.80;99.90
28614;DHT22;15806;53.548;9.964;2022-09-09T04:34:51;20.80;99.90
28614;DHT22;15806;53.548;9.964;2022-09-09T04:36:32;20.90;99.90
28614;DHT22;15806;53.548;9.964;2022-09-09T04:38:13;20.80;99.90
28614;DHT22;15806;53.548;9.964;2022-09-09T04:39:53;20.70;99.90
28614;DHT22;15806;53.548;9.964;2022-09-09T04:41:34;20.80;99.90
28614;DHT22;15806;53.548;9.964;2022-09-09T04:43:15;20.80;99.90
28614;DHT22;15806;53.548;9.964;2022-09-09T04:44:56;21.00;99.90
28614;DHT22;15806;53.548;9.964;2022-09-09T04:46:36;21.00;99.90
28614;DHT22;15806;53.548;9.964;2022-09-09T04:48:17;20.90;99.90
28614;DHT22;15806;53.548;9.964;2022-09-09T04:49:58;20.90;99.90
28614;DHT22;15806;53.548;9.964;2022-09-09T04:51:38;20.90;99.90
28614;DHT22;15806;53.548;9.964;2022-09-09T04:53:19;20.80;99.90
28614;DHT22;15806;53.548;9.964;2022-09-09T04:54:59;20.90;99.90
28614;DHT22;15806;53.548;9.964;2022-09-09T04:56:40;20.90;99.90
28614;DHT22;15806;53.548;9.964;2022-09-09T04:58:20;20.90;99.90
28614;DHT22;15806;53.548;9.964;2022-09-09T05:00:01;20.90;99.90
28614;DHT22;15806;53.548;9.964;2022-09-09T05:01:42;20.90;99.90
28614;DHT22;15806;53.548;9.964;2022-09-09T05:03:23;20.80;99.90
28614;DHT22;15806;53.548;9.964;2022-09-09T05:05:03;20.80;99.90
28614;DHT22;15806;53.548;9.964;2022-09-09T05:06:44;20.80;99.90
28614;DHT22;15806;53.548;9.964;2022-09-09T05:08:24;20.90;99.90
28614;DHT22;15806;53.548;9.964;2022-09-09T05:10:05;20.80;99.90
28614;DHT22;15806;53.548;9.964;2022-09-09T05:11:46;20.90;99.90
28614;DHT22;15806;53.548;9.964;2022-09-09T05:13:27;20.90;99.90
28614;DHT22;15806;53.548;9.964;2022-09-09T05:15:08;20.90;99.90
28614;DHT22;15806;53.548;9.964;2022-09-09T05:16:48;20.90;99.90
28614;DHT22;15806;53.548;9.964;2022-09-09T05:18:29;20.80;99.90
28614;DHT22;15806;53.548;9.964;2022-09-09T05:20:09;20.80;99.90
28614;DHT22;15806;53.548;9.964;2022-09-09T05:21:50;20.90;99.90
28614;DHT22;15806;53.548;9.964;2022-09-09T05:23:30;21.00;99.90
28614;DHT22;15806;53.548;9.964;2022-09-09T05:25:11;20.90;99.90
28614;DHT22;15806;53.548;9.964;2022-09-09T05:26:51;20.90;99.90
28614;DHT22;15806;53.548;9.964;2022-09-09T05:28:34;20.90;99.90
28614;DHT22;15806;53.548;9.964;2022-09-09T05:30:15;20.90;99.90
28614;DHT22;15806;53.548;9.964;2022-09-09T05:31:55;20.90;99.90
28614;DHT22;15806;53.548;9.964;2022-09-09T05:33:36;20.90;99.90
28614;DHT22;15806;53.548;9.964;2022-09-09T05:35:17;20.90;99.90
28614;DHT22;15806;53.548;9.964;2022-09-09T05:36:57;20.90;99.90
28614;DHT22;15806;53.548;9.964;2022-09-09T05:38:38;20.90;99.90
28614;DHT22;15806;53.548;9.964;2022-09-09T05:40:19;20.90;99.90
28614;DHT22;15806;53.548;9.964;2022-09-09T05:41:59;20.90;99.90
28614;DHT22;15806;53.548;9.964;2022-09-09T05:43:40;20.90;99.90
28614;DHT22;15806;53.548;9.964;2022-09-09T05:45:20;20.80;99.90
28614;DHT22;15806;53.548;9.964;2022-09-09T05:47:01;20.80;99.90
28614;DHT22;15806;53.548;9.964;2022-09-09T05:48:43;20.90;99.90
28614;DHT22;15806;53.548;9.964;2022-09-09T05:50:24;20.80;99.90
28614;DHT22;15806;53.548;9.964;2022-09-09T05:52:04;20.90;99.90
28614;DHT22;15806;53.548;9.964;2022-09-09T05:53:45;20.90;99.90
28614;DHT22;15806;53.548;9.964;2022-09-09T05:55:26;20.90;99.90
28614;DHT22;15806;53.548;9.964;2022-09-09T05:57:06;21.00;99.90
28614;DHT22;15806;53.548;9.964;2022-09-09T05:58:47;21.00;99.90
28614;DHT22;15806;53.548;9.964;2022-09-09T06:00:27;21.00;99.90
28614;DHT22;15806;53.548;9.964;2022-09-09T06:02:09;21.00;99.90
28614;DHT22;15806;53.548;9.964;2022-09-09T06:03:50;21.00;99.90
28614;DHT22;15806;53.548;9.964;2022-09-09T06:05:31;20.90;99.90
28614;DHT22;15806;53.548;9.964;2022-09-09T06:07:11;20.90;99.90
28614;DHT22;15806;53.548;9.964;2022-09-09T06:08:54;20.90;99.90
28614;DHT22;15806;53.548;9.964;2022-09-09T06:10:35;20.90;99.90
28614;DHT22;15806;53.548;9.964;2022-09-09T06:12:15;20.90;99.90
28614;DHT22;15806;53.548;9.964;2022-09-09T06:13:56;20.90;99.90
28614;DHT22;15806;53.548;9.964;2022-09-09T06:15:37;20.90;99.90
28614;DHT22;15806;53.548;9.964;2022-09-09T06:17:17;20.80;99.90
28614;DHT22;15806;53.548;9.964;2022-09-09T06:18:58;20.80;99.90
28614;DHT22;15806;53.548;9.964;2022-09-09T06:20:39;20.80;99.90
28614;DHT22;15806;53.548;9.964;2022-09-09T06:22:19;20.80;99.90
28614;DHT22;15806;53.548;9.964;2022-09-09T06:24:00;20.70;99.90
28614;DHT22;15806;53.548;9.964;2022-09-09T06:25:40;20.70;99.90
28614;DHT22;15806;53.548;9.964;2022-09-09T06:27:21;20.70;99.90
28614;DHT22;15806;53.548;9.964;2022-09-09T06:29:03;20.70;99.90
28614;DHT22;15806;53.548;9.964;2022-09-09T06:30:44;20.70;99.90
28614;DHT22;15806;53.548;9.964;2022-09-09T06:32:24;20.70;99.90
28614;DHT22;15806;53.548;9.964;2022-09-09T06:34:06;20.70;99.90
28614;DHT22;15806;53.548;9.964;2022-09-09T06:35:54;20.70;99.90
28614;DHT22;15806;53.548;9.964;2022-09-09T06:37:34;20.70;99.90
28614;DHT22;15806;53.548;9.964;2022-09-09T06:39:15;20.70;99.90
28614;DHT22;15806;53.548;9.964;2022-09-09T06:40:57;20.60;99.90
28614;DHT22;15806;53.548;9.964;2022-09-09T06:42:39;20.70;99.90
28614;DHT22;15806;53.548;9.964;2022-09-09T06:44:19;20.70;99.90
28614;DHT22;15806;53.548;9.964;2022-09-09T06:46:05;20.70;99.90
28614;DHT22;15806;53.548;9.964;2022-09-09T06:47:46;20.70;99.90
28614;DHT22;15806;53.548;9.964;2022-09-09T06:49:26;20.60;99.90
28614;DHT22;15806;53.548;9.964;2022-09-09T06:51:18;20.70;99.90
28614;DHT22;15806;53.548;9.964;2022-09-09T06:52:59;20.80;99.90
28614;DHT22;15806;53.548;9.964;2022-09-09T06:54:39;20.90;99.90
28614;DHT22;15806;53.548;9.964;2022-09-09T06:56:21;21.10;99.90
28614;DHT22;15806;53.548;9.964;2022-09-09T06:58:02;21.20;99.90
28614;DHT22;15806;53.548;9.964;2022-09-09T06:59:47;21.30;99.90
28614;DHT22;15806;53.548;9.964;2022-09-09T07:01:30;21.20;99.90
28614;DHT22;15806;53.548;9.964;2022-09-09T07:03:11;21.20;99.90
28614;DHT22;15806;53.548;9.964;2022-09-09T07:04:52;21.50;99.90
28614;DHT22;15806;53.548;9.964;2022-09-09T07:06:34;21.90;99.90
28614;DHT22;15806;53.548;9.964;2022-09-09T07:08:15;22.20;99.90
28614;DHT22;15806;53.548;9.964;2022-09-09T07:09:55;21.50;99.90
28614;DHT22;15806;53.548;9.964;2022-09-09T07:11:41;21.30;99.90
28614;DHT22;15806;53.548;9.964;2022-09-09T07:13:26;21.00;99.90
28614;DHT22;15806;53.548;9.964;2022-09-09T07:15:07;20.90;99.90
28614;DHT22;15806;53.548;9.964;2022-09-09T07:16:47;20.70;99.90
28614;DHT22;15806;53.548;9.964;2022-09-09T07:18:28;20.50;99.90
28614;DHT22;15806;53.548;9.964;2022-09-09T07:20:08;20.50;99.90
28614;DHT22;15806;53.548;9.964;2022-09-09T07:21:49;20.50;99.90
28614;DHT22;15806;53.548;9.964;2022-09-09T07:23:49;20.50;99.90
28614;DHT22;15806;53.548;9.964;2022-09-09T07:25:29;20.60;99.90
28614;DHT22;15806;53.548;9.964;2022-09-09T07:27:10;20.70;99.90
28614;DHT22;15806;53.548;9.964;2022-09-09T07:28:51;20.60;99.90
28614;DHT22;15806;53.548;9.964;2022-09-09T07:30:31;20.60;99.90
28614;DHT22;15806;53.548;9.964;2022-09-09T07:32:12;20.60;99.90
28614;DHT22;15806;53.548;9.964;2022-09-09T07:33:52;20.60;99.90
28614;DHT22;15806;53.548;9.964;2022-09-09T07:35:33;20.40;99.90
28614;DHT22;15806;53.548;9.964;2022-09-09T07:37:14;20.80;99.90
28614;DHT22;15806;53.548;9.964;2022-09-09T07:39:00;20.90;99.90
28614;DHT22;15806;53.548;9.964;2022-09-09T07:40:41;20.90;99.90
28614;DHT22;15806;53.548;9.964;2022-09-09T07:42:21;20.60;99.90
28614;DHT22;15806;53.548;9.964;2022-09-09T07:44:11;20.50;99.90
28614;DHT22;15806;53.548;9.964;2022-09-09T07:45:58;20.30;99.90
28614;DHT22;15806;53.548;9.964;2022-09-09T07:47:38;19.90;99.90
28614;DHT22;15806;53.548;9.964;2022-09-09T07:49:19;19.70;99.90
28614;DHT22;15806;53.548;9.964;2022-09-09T07:51:14;19.60;99.90
28614;DHT22;15806;53.548;9.964;2022-09-09T07:52:55;19.60;99.90
28614;DHT22;15806;53.548;9.964;2022-09-09T07:54:35;19.60;99.90
28614;DHT22;15806;53.548;9.964;2022-09-09T07:56:17;19.60;99.90
28614;DHT22;15806;53.548;9.964;2022-09-09T07:57:58;19.70;99.90
28614;DHT22;15806;53.548;9.964;2022-09-09T07:59:39;19.60;99.90
28614;DHT22;15806;53.548;9.964;2022-09-09T08:01:26;19.70;99.90
28614;DHT22;15806;53.548;9.964;2022-09-09T08:03:07;19.70;99.90
28614;DHT22;15806;53.548;9.964;2022-09-09T08:04:47;19.70;99.90
28614;DHT22;15806;53.548;9.964;2022-09-09T08:06:30;19.70;99.90
28614;DHT22;15806;53.548;9.964;2022-09-09T08:08:11;19.70;99.90
28614;DHT22;15806;53.548;9.964;2022-09-09T08:09:53;19.60;99.90
28614;DHT22;15806;53.548;9.964;2022-09-09T08:11:34;19.80;99.90
28614;DHT22;15806;53.548;9.964;2022-09-09T08:13:14;19.90;99.90
28614;DHT22;15806;53.548;9.964;2022-09-09T08:14:55;19.90;99.90
28614;DHT22;15806;53.548;9.964;2022-09-09T08:16:38;19.90;99.90
28614;DHT22;15806;53.548;9.964;2022-09-09T08:18:19;19.20;99.90
28614;DHT22;15806;53.548;9.964;2022-09-09T08:20:10;19.10;99.90
28614;DHT22;15806;53.548;9.964;2022-09-09T08:24:02;19.20;99.90
28614;DHT22;15806;53.548;9.964;2022-09-09T08:25:42;19.20;99.90
28614;DHT22;15806;53.548;9.964;2022-09-09T08:27:23;19.40;99.90
28614;DHT22;15806;53.548;9.964;2022-09-09T08:29:05;19.60;99.90
28614;DHT22;15806;53.548;9.964;2022-09-09T08:30:46;19.70;99.90
28614;DHT22;15806;53.548;9.964;2022-09-09T08:32:26;18.90;99.90
28614;DHT22;15806;53.548;9.964;2022-09-09T08:34:07;18.90;99.90
28614;DHT22;15806;53.548;9.964;2022-09-09T08:35:51;18.80;99.90
28614;DHT22;15806;53.548;9.964;2022-09-09T08:37:32;18.60;99.90
28614;DHT22;15806;53.548;9.964;2022-09-09T08:39:14;18.60;99.90
28614;DHT22;15806;53.548;9.964;2022-09-09T08:41:03;18.40;99.90
28614;DHT22;15806;53.548;9.964;2022-09-09T08:42:48;18.10;99.90
28614;DHT22;15806;53.548;9.964;2022-09-09T08:48:44;18.50;99.90
28614;DHT22;15806;53.548;9.964;2022-09-09T08:50:30;18.50;99.90
28614;DHT22;15806;53.548;9.964;2022-09-09T08:52:16;18.40;99.90
28614;DHT22;15806;53.548;9.964;2022-09-09T08:54:00;18.40;99.90
28614;DHT22;15806;53.548;9.964;2022-09-09T08:55:48;18.60;99.90
28614;DHT22;15806;53.548;9.964;2022-09-09T08:57:31;18.70;99.90
28614;DHT22;15806;53.548;9.964;2022-09-09T08:59:16;18.60;99.90
28614;DHT22;15806;53.548;9.964;2022-09-09T09:01:02;18.40;99.90
28614;DHT22;15806;53.548;9.964;2022-09-09T09:03:13;18.40;99.90
28614;DHT22;15806;53.548;9.964;2022-09-09T09:05:00;18.40;99.90
28614;DHT22;15806;53.548;9.964;2022-09-09T09:06:52;18.60;99.90
28614;DHT22;15806;53.548;9.964;2022-09-09T09:08:45;18.30;99.90
28614;DHT22;15806;53.548;9.964;2022-09-09T09:10:42;18.50;99.90
28614;DHT22;15806;53.548;9.964;2022-09-09T09:12:29;18.70;99.90
28614;DHT22;15806;53.548;9.964;2022-09-09T09:14:24;19.00;99.90
28614;DHT22;15806;53.548;9.964;2022-09-09T09:16:22;18.50;99.90
28614;DHT22;15806;53.548;9.964;2022-09-09T09:18:04;18.70;99.90
28614;DHT22;15806;53.548;9.964;2022-09-09T09:19:47;18.90;99.90
28614;DHT22;15806;53.548;9.964;2022-09-09T09:21:41;19.20;99.90
28614;DHT22;15806;53.548;9.964;2022-09-09T09:23:26;19.00;99.90
28614;DHT22;15806;53.548;9.964;2022-09-09T09:25:18;19.10;99.90
28614;DHT22;15806;53.548;9.964;2022-09-09T09:27:12;18.70;99.90
28614;DHT22;15806;53.548;9.964;2022-09-09T09:28:55;18.70;99.90
28614;DHT22;15806;53.548;9.964;2022-09-09T09:31:00;18.60;99.90
28614;DHT22;15806;53.548;9.964;2022-09-09T09:32:49;18.90;99.90
28614;DHT22;15806;53.548;9.964;2022-09-09T09:34:31;19.10;99.90
28614;DHT22;15806;53.548;9.964;2022-09-09T09:36:12;19.40;99.90
28614;DHT22;15806;53.548;9.964;2022-09-09T09:37:53;19.40;99.90
28614;DHT22;15806;53.548;9.964;2022-09-09T09:39:34;19.50;99.90
28614;DHT22;15806;53.548;9.964;2022-09-09T09:41:14;19.40;99.90
28614;DHT22;15806;53.548;9.964;2022-09-09T09:42:57;19.20;99.90
28614;DHT22;15806;53.548;9.964;2022-09-09T09:44:40;19.20;99.90
28614;DHT22;15806;53.548;9.964;2022-09-09T09:46:22;19.30;99.90
28614;DHT22;15806;53.548;9.964;2022-09-09T09:48:11;19.40;99.90
28614;DHT22;15806;53.548;9.964;2022-09-09T09:49:59;19.10;99.90
28614;DHT22;15806;53.548;9.964;2022-09-09T09:51:40;19.30;99.90
28614;DHT22;15806;53.548;9.964;2022-09-09T09:53:32;19.40;99.90
28614;DHT22;15806;53.548;9.964;2022-09-09T09:55:14;19.50;99.90
28614;DHT22;15806;53.548;9.964;2022-09-09T09:56:55;19.50;99.90
28614;DHT22;15806;53.548;9.964;2022-09-09T09:58:48;19.70;99.90
28614;DHT22;15806;53.548;9.964;2022-09-09T10:00:29;19.90;99.90
28614;DHT22;15806;53.548;9.964;2022-09-09T10:05:57;19.80;99.90
28614;DHT22;15806;53.548;9.964;2022-09-09T10:07:38;19.70;99.90
28614;DHT22;15806;53.548;9.964;2022-09-09T10:09:28;19.80;99.90
28614;DHT22;15806;53.548;9.964;2022-09-09T10:13:18;19.80;99.90
28614;DHT22;15806;53.548;9.964;2022-09-09T10:17:14;20.00;99.90
28614;DHT22;15806;53.548;9.964;2022-09-09T10:19:15;20.00;99.90
28614;DHT22;15806;53.548;9.964;2022-09-09T10:21:13;20.20;99.90
28614;DHT22;15806;53.548;9.964;2022-09-09T10:23:21;20.30;99.90
28614;DHT22;15806;53.548;9.964;2022-09-09T10:27:11;20.00;99.90
28614;DHT22;15806;53.548;9.964;2022-09-09T10:30:45;20.20;99.90
28614;DHT22;15806;53.548;9.964;2022-09-09T10:36:25;20.10;99.90
28614;DHT22;15806;53.548;9.964;2022-09-09T10:38:16;19.80;99.90
28614;DHT22;15806;53.548;9.964;2022-09-09T10:40:37;19.80;99.90
28614;DHT22;15806;53.548;9.964;2022-09-09T10:42:21;19.90;99.90
28614;DHT22;15806;53.548;9.964;2022-09-09T10:44:37;20.00;99.90
28614;DHT22;15806;53.548;9.964;2022-09-09T10:52:23;20.10;99.90
28614;DHT22;15806;53.548;9.964;2022-09-09T10:54:19;20.20;99.90
28614;DHT22;15806;53.548;9.964;2022-09-09T10:56:09;20.00;99.90
28614;DHT22;15806;53.548;9.964;2022-09-09T10:57:52;20.20;99.90
28614;DHT22;15806;53.548;9.964;2022-09-09T10:59:40;20.30;99.90
28614;DHT22;15806;53.548;9.964;2022-09-09T11:01:27;20.40;99.90
28614;DHT22;15806;53.548;9.964;2022-09-09T11:03:21;20.50;99.90
28614;DHT22;15806;53.548;9.964;2022-09-09T11:05:25;20.20;99.90
28614;DHT22;15806;53.548;9.964;2022-09-09T11:07:07;20.40;99.90
28614;DHT22;15806;53.548;9.964;2022-09-09T11:08:49;20.40;99.90
28614;DHT22;15806;53.548;9.964;2022-09-09T11:10:38;20.40;99.90
28614;DHT22;15806;53.548;9.964;2022-09-09T11:12:20;20.60;99.90
28614;DHT22;15806;53.548;9.964;2022-09-09T11:14:18;20.70;99.90
28614;DHT22;15806;53.548;9.964;2022-09-09T11:16:06;21.10;99.90
28614;DHT22;15806;53.548;9.964;2022-09-09T11:17:58;21.80;99.90
28614;DHT22;15806;53.548;9.964;2022-09-09T11:19:41;23.20;99.90
28614;DHT22;15806;53.548;9.964;2022-09-09T11:21:29;23.60;99.90
28614;DHT22;15806;53.548;9.964;2022-09-09T11:23:19;23.90;99.90
28614;DHT22;15806;53.548;9.964;2022-09-09T11:27:19;23.90;99.90
28614;DHT22;15806;53.548;9.964;2022-09-09T11:33:45;22.30;99.90
28614;DHT22;15806;53.548;9.964;2022-09-09T11:38:04;21.40;99.90
28614;DHT22;15806;53.548;9.964;2022-09-09T11:41:47;21.40;99.90
28614;DHT22;15806;53.548;9.964;2022-09-09T11:45:26;22.80;99.90
28614;DHT22;15806;53.548;9.964;2022-09-09T11:47:28;21.70;99.90
28614;DHT22;15806;53.548;9.964;2022-09-09T11:51:24;20.60;99.90
28614;DHT22;15806;53.548;9.964;2022-09-09T11:53:21;20.60;99.90
28614;DHT22;15806;53.548;9.964;2022-09-09T11:55:25;20.80;99.90
28614;DHT22;15806;53.548;9.964;2022-09-09T11:57:24;20.80;99.90
28614;DHT22;15806;53.548;9.964;2022-09-09T11:59:19;21.20;99.90
28614;DHT22;15806;53.548;9.964;2022-09-09T12:00:59;22.80;99.90
28614;DHT22;15806;53.548;9.964;2022-09-09T12:02:48;21.90;99.90
28614;DHT22;15806;53.548;9.964;2022-09-09T12:07:58;20.50;99.90
28614;DHT22;15806;53.548;9.964;2022-09-09T12:09:48;20.40;99.90
28614;DHT22;15806;53.548;9.964;2022-09-09T12:11:30;20.30;99.90
28614;DHT22;15806;53.548;9.964;2022-09-09T12:13:22;20.20;99.90
28614;DHT22;15806;53.548;9.964;2022-09-09T12:16:49;20.10;99.90
28614;DHT22;15806;53.548;9.964;2022-09-09T12:18:38;20.10;99.90
28614;DHT22;15806;53.548;9.964;2022-09-09T12:20:31;20.30;99.90
28614;DHT22;15806;53.548;9.964;2022-09-09T12:22:25;20.30;99.90
28614;DHT22;15806;53.548;9.964;2022-09-09T12:24:11;20.10;99.90
28614;DHT22;15806;53.548;9.964;2022-09-09T12:25:59;20.00;99.90
28614;DHT22;15806;53.548;9.964;2022-09-09T12:27:50;20.20;99.90